createdAt,value
2022-12-31T00:02:11.457Z,997.72
2022-12-31T00:04:37.822Z,973.67
2022-12-31T00:07:04.179Z,995.80
2022-12-31T00:09:30.615Z,999.90
2022-12-31T00:11:56.918Z,999.90
2022-12-31T00:14:23.247Z,999.90
2022-12-31T00:16:49.673Z,999.90
2022-12-31T00:19:16.024Z,999.90
2022-12-31T00:21:43.482Z,999.90
2022-12-31T00:24:11.484Z,999.90
2022-12-31T00:26:38.658Z,999.90
2022-12-31T00:29:05.859Z,999.90
2022-12-31T00:31:36.992Z,999.90
2022-12-31T00:34:04.956Z,999.90
2022-12-31T00:36:36.559Z,999.90
2022-12-31T00:39:05.355Z,999.90
2022-12-31T00:41:32.192Z,999.35
2022-12-31T00:43:59.230Z,988.55
2022-12-31T00:46:26.064Z,946.92
2022-12-31T00:48:52.874Z,909.10
2022-12-31T00:51:22.052Z,897.75
2022-12-31T00:53:48.498Z,898.00
2022-12-31T00:56:18.267Z,897.53
2022-12-31T00:58:45.029Z,848.17
2022-12-31T01:01:15.106Z,820.58
2022-12-31T01:03:42.107Z,884.13
2022-12-31T01:06:08.977Z,865.95
2022-12-31T01:08:35.433Z,839.08
2022-12-31T01:11:22.019Z,823.45
2022-12-31T01:13:55.385Z,784.03
2022-12-31T01:16:25.811Z,814.28
2022-12-31T01:18:52.613Z,743.72
2022-12-31T01:21:19.378Z,788.70
2022-12-31T01:23:46.128Z,751.20
2022-12-31T01:26:14.635Z,795.85
2022-12-31T01:28:41.043Z,696.55
2022-12-31T01:31:11.109Z,693.97
2022-12-31T01:33:38.236Z,711.63
2022-12-31T01:36:07.389Z,685.92
2022-12-31T01:38:35.028Z,594.00
2022-12-31T01:41:04.628Z,771.90
2022-12-31T01:43:51.340Z,725.80
2022-12-31T01:46:27.115Z,641.95
2022-12-31T01:48:57.872Z,719.35
2022-12-31T01:51:27.621Z,717.67
2022-12-31T01:53:55.003Z,632.90
2022-12-31T01:56:23.088Z,490.17
2022-12-31T01:58:53.400Z,569.08
2022-12-31T02:01:26.190Z,410.55
2022-12-31T02:03:53.744Z,361.30
2022-12-31T02:06:33.353Z,326.33
2022-12-31T02:09:00.578Z,242.65
2022-12-31T02:11:31.088Z,302.60
2022-12-31T02:14:01.302Z,200.48
2022-12-31T02:16:51.441Z,153.73
2022-12-31T02:19:23.856Z,100.82
2022-12-31T02:22:13.377Z,101.95
2022-12-31T02:25:17.419Z,91.90
2022-12-31T02:27:49.694Z,109.85
2022-12-31T02:30:22.163Z,48.28
2022-12-31T02:33:31.654Z,41.10
2022-12-31T02:36:02.119Z,37.00
2022-12-31T02:38:33.813Z,39.67
2022-12-31T02:41:00.373Z,56.25
2022-12-31T02:43:27.026Z,35.05
2022-12-31T02:46:15.394Z,29.48
2022-12-31T02:48:49.109Z,58.22
2022-12-31T02:51:39.592Z,94.60
2022-12-31T02:54:17.955Z,55.72
2022-12-31T02:56:54.169Z,61.90
2022-12-31T02:59:46.393Z,54.78
2022-12-31T03:02:19.275Z,56.92
2022-12-31T03:04:53.925Z,58.47
2022-12-31T03:07:23.397Z,28.42
2022-12-31T03:09:50.428Z,130.23
2022-12-31T03:12:36.926Z,83.25
2022-12-31T03:15:06.732Z,51.22
2022-12-31T03:17:34.151Z,113.38
2022-12-31T03:20:19.231Z,111.70
2022-12-31T03:22:45.708Z,77.35
2022-12-31T03:25:37.968Z,162.88
2022-12-31T03:28:10.191Z,115.18
2022-12-31T03:30:38.805Z,191.52
2022-12-31T03:33:07.112Z,203.75
2022-12-31T03:35:35.696Z,128.15
2022-12-31T03:38:02.758Z,174.52
2022-12-31T03:40:30.585Z,209.50
2022-12-31T03:42:57.057Z,155.35
2022-12-31T03:45:24.068Z,260.85
2022-12-31T03:47:50.406Z,186.90
2022-12-31T03:50:18.592Z,219.48
2022-12-31T03:52:45.154Z,266.55
2022-12-31T03:55:12.767Z,133.20
2022-12-31T03:57:39.464Z,291.98
2022-12-31T04:00:08.288Z,248.52
2022-12-31T04:02:34.757Z,311.98
2022-12-31T04:05:01.196Z,431.27
2022-12-31T04:07:27.747Z,385.15
2022-12-31T04:09:54.090Z,164.18
2022-12-31T04:12:20.447Z,286.23
2022-12-31T04:14:46.837Z,127.50
2022-12-31T04:17:13.206Z,96.85
2022-12-31T04:19:39.622Z,96.47
2022-12-31T04:22:06.050Z,83.93
2022-12-31T04:24:32.399Z,56.50
2022-12-31T04:27:03.743Z,53.25
2022-12-31T04:29:33.546Z,50.05
2022-12-31T04:32:00.023Z,67.25
2022-12-31T04:34:26.472Z,84.22
2022-12-31T04:36:53.047Z,72.93
2022-12-31T04:39:19.361Z,54.47
2022-12-31T04:41:45.742Z,61.47
2022-12-31T04:44:12.247Z,50.15
2022-12-31T04:46:38.632Z,40.58
2022-12-31T04:49:05.169Z,56.90
2022-12-31T04:51:32.049Z,60.42
2022-12-31T04:53:58.767Z,61.15
2022-12-31T04:56:26.304Z,45.50
2022-12-31T04:58:52.797Z,32.63
2022-12-31T05:01:21.076Z,30.15
2022-12-31T05:03:47.984Z,61.53
2022-12-31T05:06:20.480Z,56.67
2022-12-31T05:08:47.190Z,31.70
2022-12-31T05:11:13.634Z,33.47
2022-12-31T05:13:40.102Z,34.90
2022-12-31T05:16:07.306Z,28.95
2022-12-31T05:18:33.825Z,35.75
2022-12-31T05:21:00.133Z,22.80
2022-12-31T05:23:26.851Z,29.55
2022-12-31T05:25:53.462Z,37.90
2022-12-31T05:28:20.256Z,60.58
2022-12-31T05:30:51.067Z,27.08
2022-12-31T05:33:18.545Z,26.83
2022-12-31T05:35:45.882Z,30.00
2022-12-31T05:38:12.298Z,45.45
2022-12-31T05:40:38.654Z,29.88
2022-12-31T05:43:05.034Z,29.88
2022-12-31T05:45:31.604Z,35.40
2022-12-31T05:47:58.054Z,83.30
2022-12-31T05:50:24.414Z,32.58
2022-12-31T05:52:50.782Z,64.80
2022-12-31T05:55:17.300Z,57.33
2022-12-31T05:57:43.673Z,95.28
2022-12-31T06:00:10.947Z,27.45
2022-12-31T06:02:37.374Z,21.48
2022-12-31T06:05:04.735Z,53.88
2022-12-31T06:07:31.061Z,40.40
2022-12-31T06:09:57.392Z,19.52
2022-12-31T06:12:23.738Z,20.05
2022-12-31T06:14:50.108Z,21.88
2022-12-31T06:17:16.516Z,21.60
2022-12-31T06:19:42.896Z,23.55
2022-12-31T06:22:09.245Z,23.35
2022-12-31T06:24:35.594Z,53.90
2022-12-31T06:27:01.916Z,28.60
2022-12-31T06:29:28.263Z,23.55
2022-12-31T06:31:54.594Z,29.67
2022-12-31T06:34:20.932Z,49.22
2022-12-31T06:36:47.273Z,35.15
2022-12-31T06:39:13.638Z,33.03
2022-12-31T06:41:40.004Z,41.63
2022-12-31T06:44:06.424Z,28.83
2022-12-31T06:46:32.968Z,39.35
2022-12-31T06:48:59.315Z,30.60
2022-12-31T06:51:25.642Z,36.83
2022-12-31T06:53:52.318Z,32.60
2022-12-31T06:56:26.480Z,56.65
2022-12-31T06:58:56.324Z,27.00
2022-12-31T07:01:46.885Z,24.58
2022-12-31T07:04:50.386Z,50.53
2022-12-31T07:07:43.967Z,30.73
2022-12-31T07:10:39.615Z,28.10
2022-12-31T07:13:24.748Z,34.40
2022-12-31T07:16:18.157Z,34.55
2022-12-31T07:19:06.574Z,29.90
2022-12-31T07:21:39.240Z,28.92
2022-12-31T07:24:07.330Z,27.33
2022-12-31T07:26:56.794Z,54.28
2022-12-31T07:29:26.313Z,24.83
2022-12-31T07:32:04.652Z,26.60
2022-12-31T07:34:30.948Z,27.55
2022-12-31T07:37:12.946Z,31.02
2022-12-31T07:39:46.358Z,27.70
2022-12-31T07:42:32.789Z,47.40
2022-12-31T07:45:14.347Z,30.67
2022-12-31T07:47:40.990Z,25.58
2022-12-31T07:50:14.477Z,25.05
2022-12-31T07:52:43.770Z,26.20
2022-12-31T07:55:10.934Z,33.92
2022-12-31T07:58:00.985Z,25.65
2022-12-31T08:00:31.134Z,28.63
2022-12-31T08:03:00.237Z,26.48
2022-12-31T08:06:14.941Z,27.60
2022-12-31T08:08:59.735Z,27.15
2022-12-31T08:11:37.810Z,24.20
2022-12-31T08:14:08.730Z,25.52
2022-12-31T08:16:35.369Z,25.02
2022-12-31T08:19:02.023Z,51.05
2022-12-31T08:22:12.942Z,26.95
2022-12-31T08:25:13.635Z,25.55
2022-12-31T08:28:12.882Z,27.25
2022-12-31T08:30:53.620Z,25.45
2022-12-31T08:33:34.832Z,28.52
2022-12-31T08:36:29.267Z,44.25
2022-12-31T08:39:32.099Z,24.20
2022-12-31T08:42:00.155Z,24.50
2022-12-31T08:44:51.408Z,24.63
2022-12-31T08:47:34.148Z,25.58
2022-12-31T08:50:04.374Z,24.35
2022-12-31T08:52:31.011Z,25.40
2022-12-31T08:54:57.614Z,40.72
2022-12-31T08:57:39.966Z,25.00
2022-12-31T09:00:13.706Z,24.48
2022-12-31T09:03:29.873Z,29.23
2022-12-31T09:06:28.510Z,34.40
2022-12-31T09:09:10.498Z,28.27
2022-12-31T09:11:58.656Z,33.28
2022-12-31T09:14:38.971Z,26.45
2022-12-31T09:17:49.975Z,25.17
2022-12-31T09:20:26.196Z,28.67
2022-12-31T09:22:54.159Z,28.35
2022-12-31T09:25:22.164Z,27.40
2022-12-31T09:27:51.409Z,24.27
2022-12-31T09:30:18.733Z,25.83
2022-12-31T09:33:03.905Z,25.30
2022-12-31T09:35:52.474Z,34.85
2022-12-31T09:38:37.317Z,27.38
2022-12-31T09:41:15.944Z,23.85
2022-12-31T09:44:16.669Z,21.73
2022-12-31T09:47:13.950Z,24.35
2022-12-31T09:49:52.282Z,23.38
2022-12-31T09:52:27.797Z,25.13
2022-12-31T09:55:00.580Z,26.23
2022-12-31T09:57:40.572Z,36.53
2022-12-31T10:00:21.257Z,28.95
2022-12-31T10:02:55.856Z,23.17
2022-12-31T10:05:30.200Z,23.30
2022-12-31T10:10:38.631Z,26.75
2022-12-31T10:13:25.654Z,23.83
2022-12-31T10:16:10.445Z,24.75
2022-12-31T10:19:13.326Z,23.85
2022-12-31T10:21:57.849Z,23.27
2022-12-31T10:24:39.542Z,25.50
2022-12-31T10:27:32.439Z,38.75
2022-12-31T10:30:11.787Z,21.75
2022-12-31T10:33:10.408Z,20.70
2022-12-31T10:36:08.028Z,20.10
2022-12-31T10:39:05.059Z,18.98
2022-12-31T10:42:12.709Z,20.02
2022-12-31T10:44:57.432Z,18.98
2022-12-31T10:50:46.612Z,18.25
2022-12-31T10:53:37.765Z,19.73
2022-12-31T10:56:30.822Z,18.50
2022-12-31T10:59:17.419Z,20.60
2022-12-31T11:02:08.325Z,17.35
2022-12-31T11:04:40.858Z,15.32
2022-12-31T11:07:45.278Z,18.52
2022-12-31T11:10:43.644Z,19.07
2022-12-31T11:13:36.697Z,20.02
2022-12-31T11:16:13.524Z,13.57
2022-12-31T11:19:02.111Z,24.77
2022-12-31T11:21:46.894Z,18.85
2022-12-31T11:24:28.620Z,14.88
2022-12-31T11:27:05.186Z,13.23
2022-12-31T11:30:01.237Z,12.02
2022-12-31T11:32:48.316Z,17.60
2022-12-31T11:35:22.834Z,16.27
2022-12-31T11:38:24.332Z,10.82
2022-12-31T11:41:00.683Z,11.63
2022-12-31T11:43:43.882Z,11.43
2022-12-31T11:46:26.313Z,10.32
2022-12-31T11:49:01.131Z,11.30
2022-12-31T11:51:46.929Z,11.65
2022-12-31T11:54:58.777Z,12.02
2022-12-31T11:57:32.429Z,14.05
2022-12-31T12:00:04.428Z,14.02
2022-12-31T12:02:37.009Z,14.60
2022-12-31T12:05:10.656Z,16.20
2022-12-31T12:07:37.559Z,15.95
2022-12-31T12:10:17.630Z,20.25
2022-12-31T12:12:44.136Z,20.55
2022-12-31T12:15:17.922Z,18.88
2022-12-31T12:17:49.173Z,18.67
2022-12-31T12:20:19.962Z,20.35
2022-12-31T12:22:56.463Z,19.55
2022-12-31T12:25:25.914Z,18.05
2022-12-31T12:27:53.963Z,24.35
2022-12-31T12:30:26.907Z,20.55
2022-12-31T12:32:55.677Z,27.58
2022-12-31T12:35:34.090Z,18.48
2022-12-31T12:38:00.511Z,16.27
2022-12-31T12:40:33.836Z,15.90
2022-12-31T12:43:01.838Z,24.10
2022-12-31T12:45:49.169Z,15.75
2022-12-31T12:48:45.876Z,14.52
2022-12-31T12:51:32.312Z,15.35
2022-12-31T12:54:08.248Z,15.32
2022-12-31T12:56:57.980Z,15.40
2022-12-31T12:59:39.612Z,15.80
2022-12-31T13:02:21.332Z,25.40
2022-12-31T13:05:21.682Z,20.83
2022-12-31T13:08:14.370Z,20.50
2022-12-31T13:10:59.545Z,24.25
2022-12-31T13:13:54.292Z,22.50
2022-12-31T13:16:39.830Z,21.42
2022-12-31T13:19:42.595Z,28.20
2022-12-31T13:22:29.905Z,19.92
2022-12-31T13:25:02.373Z,23.50
2022-12-31T13:27:40.549Z,20.83
2022-12-31T13:30:25.399Z,16.27
2022-12-31T13:33:16.221Z,16.58
2022-12-31T13:35:45.354Z,17.30
2022-12-31T13:38:23.342Z,16.00
2022-12-31T13:40:58.150Z,14.57
2022-12-31T13:43:51.088Z,24.15
2022-12-31T13:46:34.833Z,11.38
2022-12-31T13:49:04.860Z,10.27
2022-12-31T13:51:44.400Z,10.77
2022-12-31T13:54:38.669Z,9.93
2022-12-31T13:57:15.106Z,11.18
2022-12-31T13:59:44.963Z,10.73
2022-12-31T14:02:36.943Z,10.45
2022-12-31T14:05:17.452Z,9.98
2022-12-31T14:07:52.520Z,10.57
2022-12-31T14:10:28.589Z,12.40
2022-12-31T14:13:07.094Z,16.17
2022-12-31T14:15:56.046Z,17.63
2022-12-31T14:18:36.395Z,17.30
2022-12-31T14:21:20.805Z,20.38
2022-12-31T14:23:54.502Z,18.83
2022-12-31T14:26:30.855Z,18.60
2022-12-31T14:29:33.825Z,21.05
2022-12-31T14:32:11.481Z,22.23
2022-12-31T14:35:09.200Z,21.40
2022-12-31T14:38:03.607Z,20.23
2022-12-31T14:40:54.644Z,22.08
2022-12-31T14:43:39.747Z,21.30
2022-12-31T14:46:25.489Z,23.80
2022-12-31T14:49:29.334Z,22.85
2022-12-31T14:51:55.677Z,21.88
2022-12-31T14:54:35.408Z,23.88
2022-12-31T14:57:16.974Z,22.42
2022-12-31T14:59:57.923Z,22.10
2022-12-31T15:02:32.869Z,22.80
2022-12-31T15:05:10.619Z,23.17
2022-12-31T15:08:03.235Z,21.60
2022-12-31T15:10:48.747Z,21.83
2022-12-31T15:14:00.274Z,21.10
2022-12-31T15:17:04.044Z,21.25
2022-12-31T15:20:07.963Z,22.45
2022-12-31T15:22:46.092Z,22.83
2022-12-31T15:25:24.622Z,23.52
2022-12-31T15:27:51.589Z,22.20
2022-12-31T15:30:33.916Z,21.65
2022-12-31T15:33:04.381Z,22.50
2022-12-31T15:35:43.891Z,22.83
2022-12-31T15:38:10.154Z,22.15
2022-12-31T15:40:51.631Z,21.80
2022-12-31T15:43:23.908Z,21.00
2022-12-31T15:45:53.944Z,20.75
2022-12-31T15:48:27.263Z,18.95
2022-12-31T15:50:57.952Z,17.40
2022-12-31T15:53:39.591Z,18.50
2022-12-31T15:56:07.793Z,17.23
2022-12-31T15:58:36.969Z,16.20
2022-12-31T16:01:21.939Z,17.13
2022-12-31T16:04:00.459Z,13.82
2022-12-31T16:06:30.270Z,14.32
2022-12-31T16:08:57.527Z,14.88
2022-12-31T16:11:24.674Z,13.55
2022-12-31T16:13:54.729Z,12.80
2022-12-31T16:16:22.688Z,13.07
2022-12-31T16:18:50.186Z,11.60
2022-12-31T16:21:34.443Z,11.23
2022-12-31T16:25:19.888Z,11.50
2022-12-31T16:27:38.059Z,10.98
2022-12-31T16:30:08.407Z,11.38
2022-12-31T16:32:39.870Z,11.70
2022-12-31T16:35:23.611Z,12.63
2022-12-31T16:38:09.600Z,12.45
2022-12-31T16:40:35.980Z,11.65
2022-12-31T16:43:02.388Z,11.85
2022-12-31T16:45:35.233Z,12.75
2022-12-31T16:48:16.957Z,11.50
2022-12-31T16:50:50.845Z,11.48
2022-12-31T16:53:22.153Z,11.70
2022-12-31T16:55:55.767Z,12.60
2022-12-31T16:58:28.467Z,11.57
2022-12-31T17:00:59.692Z,10.95
2022-12-31T17:03:28.784Z,11.27
2022-12-31T17:05:56.984Z,11.35
2022-12-31T17:08:37.902Z,10.50
2022-12-31T17:11:04.582Z,10.55
2022-12-31T17:13:34.737Z,11.68
2022-12-31T17:16:01.791Z,9.95
2022-12-31T17:18:36.953Z,9.90
2022-12-31T17:21:10.727Z,8.98
2022-12-31T17:23:39.538Z,8.95
2022-12-31T17:26:12.945Z,9.82
2022-12-31T17:28:47.963Z,8.00
2022-12-31T17:31:28.617Z,6.70
2022-12-31T17:34:14.310Z,7.30
2022-12-31T17:36:51.203Z,7.28
2022-12-31T17:39:20.453Z,7.28
2022-12-31T17:41:49.385Z,8.30
2022-12-31T17:44:22.640Z,7.43
2022-12-31T17:46:50.101Z,7.53
2022-12-31T17:49:17.137Z,8.93
2022-12-31T17:51:47.554Z,7.85
2022-12-31T17:54:15.475Z,8.25
2022-12-31T17:56:42.948Z,8.23
2022-12-31T17:59:15.886Z,7.82
2022-12-31T18:01:42.447Z,9.02
2022-12-31T18:04:13.034Z,7.75
2022-12-31T18:06:39.455Z,7.80
2022-12-31T18:09:05.868Z,8.23
2022-12-31T18:11:32.332Z,7.85
2022-12-31T18:13:58.921Z,9.35
2022-12-31T18:16:25.307Z,8.68
2022-12-31T18:18:51.688Z,8.30
2022-12-31T18:21:24.741Z,8.15
2022-12-31T18:23:51.317Z,7.90
2022-12-31T18:26:23.026Z,7.45
2022-12-31T18:28:50.302Z,7.03
2022-12-31T18:31:20.603Z,6.57
2022-12-31T18:33:47.780Z,6.22
2022-12-31T18:36:16.395Z,6.15
2022-12-31T18:38:43.163Z,6.57
2022-12-31T18:41:26.806Z,6.00
2022-12-31T18:43:53.549Z,6.25
2022-12-31T18:46:22.521Z,5.93
2022-12-31T18:48:49.188Z,6.55
2022-12-31T18:51:18.785Z,6.45
2022-12-31T18:53:45.290Z,6.53
2022-12-31T18:56:19.728Z,5.72
2022-12-31T18:58:46.685Z,5.15
2022-12-31T19:01:27.928Z,5.72
2022-12-31T19:03:56.516Z,5.40
2022-12-31T19:06:23.366Z,5.45
2022-12-31T19:08:50.387Z,5.53
2022-12-31T19:11:17.287Z,5.25
2022-12-31T19:13:43.693Z,5.07
2022-12-31T19:16:10.490Z,5.68
2022-12-31T19:18:37.044Z,5.57
2022-12-31T19:21:03.568Z,5.82
2022-12-31T19:23:29.884Z,5.05
2022-12-31T19:25:56.270Z,5.35
2022-12-31T19:28:24.820Z,5.25
2022-12-31T19:30:52.151Z,5.15
2022-12-31T19:33:19.011Z,5.63
2022-12-31T19:35:46.015Z,5.40
2022-12-31T19:38:24.293Z,5.65
2022-12-31T19:40:51.903Z,5.20
2022-12-31T19:43:20.767Z,5.38
2022-12-31T19:45:48.168Z,5.63
2022-12-31T19:48:17.362Z,5.18
2022-12-31T19:50:47.267Z,5.50
2022-12-31T19:53:16.560Z,5.60
2022-12-31T19:55:43.091Z,5.57
2022-12-31T19:58:18.006Z,5.10
2022-12-31T20:00:49.663Z,5.03
2022-12-31T20:03:20.258Z,5.40
2022-12-31T20:05:46.842Z,4.78
2022-12-31T20:08:14.469Z,5.10
2022-12-31T20:10:41.113Z,4.70
2022-12-31T20:13:07.567Z,5.30
2022-12-31T20:15:34.004Z,4.68
2022-12-31T20:18:00.503Z,5.07
2022-12-31T20:20:29.077Z,4.95
2022-12-31T20:22:57.416Z,4.72
2022-12-31T20:25:25.010Z,4.75
2022-12-31T20:27:55.323Z,5.07
2022-12-31T20:30:22.956Z,5.15
2022-12-31T20:32:51.964Z,4.85
2022-12-31T20:35:19.357Z,4.55
2022-12-31T20:37:46.018Z,5.32
2022-12-31T20:40:12.896Z,5.20
2022-12-31T20:42:40.580Z,4.90
2022-12-31T20:45:10.785Z,5.22
2022-12-31T20:47:37.472Z,5.03
2022-12-31T20:50:12.724Z,4.80
2022-12-31T20:52:39.596Z,5.57
2022-12-31T20:55:06.539Z,4.68
2022-12-31T20:57:33.909Z,5.20
2022-12-31T21:00:00.878Z,5.30
2022-12-31T21:02:40.809Z,5.05
2022-12-31T21:05:08.854Z,5.22
2022-12-31T21:07:35.256Z,4.80
2022-12-31T21:10:01.621Z,5.22
2022-12-31T21:12:43.392Z,5.07
2022-12-31T21:15:11.489Z,5.20
2022-12-31T21:17:37.960Z,5.20
2022-12-31T21:20:05.240Z,5.65
2022-12-31T21:22:33.604Z,4.90
2022-12-31T21:25:01.634Z,5.30
2022-12-31T21:27:29.549Z,5.03
2022-12-31T21:32:43.087Z,5.53
2022-12-31T21:37:58.393Z,5.07
2022-12-31T21:40:27.449Z,5.50
2022-12-31T21:42:53.800Z,5.43
2022-12-31T21:45:20.126Z,5.30
2022-12-31T21:48:05.089Z,5.38
2022-12-31T21:50:32.395Z,4.80
2022-12-31T21:52:58.762Z,5.35
2022-12-31T21:55:43.783Z,5.43
2022-12-31T21:58:27.326Z,4.75
2022-12-31T22:01:14.735Z,4.72
2022-12-31T22:03:41.292Z,4.80
2022-12-31T22:06:16.049Z,4.70
2022-12-31T22:08:44.853Z,5.32
2022-12-31T22:11:12.968Z,5.28
2022-12-31T22:13:40.349Z,4.95
2022-12-31T22:16:07.614Z,5.00
2022-12-31T22:18:38.511Z,5.00
2022-12-31T22:21:10.877Z,4.90
2022-12-31T22:23:42.454Z,4.88
2022-12-31T22:26:11.789Z,5.03
2022-12-31T22:28:40.342Z,4.75
2022-12-31T22:31:11.160Z,5.05
2022-12-31T22:33:37.479Z,4.97
2022-12-31T22:36:10.229Z,4.95
2022-12-31T22:38:36.584Z,5.30
2022-12-31T22:41:04.962Z,4.93
2022-12-31T22:43:33.041Z,4.85
2022-12-31T22:46:05.063Z,5.03
2022-12-31T22:48:31.471Z,4.95
2022-12-31T22:50:57.893Z,4.80
2022-12-31T22:53:24.526Z,4.30
2022-12-31T22:55:54.628Z,5.07
2022-12-31T22:58:22.349Z,4.90
2022-12-31T23:00:49.206Z,7.60
2022-12-31T23:03:15.789Z,48.03
2022-12-31T23:05:42.991Z,16.63
2022-12-31T23:08:18.754Z,33.60
2022-12-31T23:11:00.060Z,10.88
2022-12-31T23:13:54.925Z,27.02
2022-12-31T23:16:40.003Z,16.20
2022-12-31T23:19:26.012Z,16.10
2022-12-31T23:22:11.297Z,14.73
2022-12-31T23:24:38.479Z,18.52
2022-12-31T23:27:05.353Z,13.77
2022-12-31T23:29:32.167Z,15.57
2022-12-31T23:31:58.657Z,9.02
2022-12-31T23:34:25.103Z,7.93
2022-12-31T23:36:51.462Z,7.63
2022-12-31T23:39:17.951Z,7.32
2022-12-31T23:41:44.313Z,7.35
2022-12-31T23:44:14.336Z,8.43
2022-12-31T23:46:41.026Z,8.48
2022-12-31T23:49:07.589Z,9.43
2022-12-31T23:51:35.851Z,10.00
2022-12-31T23:54:05.663Z,9.18
2022-12-31T23:56:32.022Z,9.60
2022-12-31T23:58:59.306Z,9.52
